createdAt,value
2018-04-23T00:01:51.176Z,100955.33
2018-04-23T00:04:17.190Z,100951.90
2018-04-23T00:06:43.296Z,100962.56
2018-04-23T00:09:09.357Z,100959.56
2018-04-23T00:11:35.414Z,100965.28
2018-04-23T00:14:01.421Z,100972.41
2018-04-23T00:16:27.504Z,100968.73
2018-04-23T00:18:53.520Z,100954.47
2018-04-23T00:21:19.555Z,100959.09
2018-04-23T00:23:45.593Z,100966.65
2018-04-23T00:26:11.629Z,100974.45
2018-04-23T00:28:37.651Z,100968.25
2018-04-23T00:31:03.661Z,100967.25
2018-04-23T00:33:29.802Z,100966.66
2018-04-23T00:35:55.839Z,100963.31
2018-04-23T00:38:21.845Z,100966.50
2018-04-23T00:40:47.861Z,100966.09
2018-04-23T00:43:13.913Z,100959.50
2018-04-23T00:45:39.932Z,100969.56
2018-04-23T00:48:05.924Z,100957.41
2018-04-23T00:50:31.962Z,100963.62
2018-04-23T00:55:57.717Z,100970.91
2018-04-23T00:58:23.776Z,100973.52
2018-04-23T01:00:49.800Z,100971.61
2018-04-23T01:03:15.840Z,100968.17
2018-04-23T01:05:41.879Z,100973.63
2018-04-23T01:08:07.909Z,100976.22
2018-04-23T01:10:33.921Z,100976.22
2018-04-23T01:13:00.005Z,100981.50
2018-04-23T01:15:26.089Z,100992.70
2018-04-23T01:17:52.076Z,100982.26
2018-04-23T01:20:18.109Z,100983.09
2018-04-23T01:22:44.129Z,100986.75
2018-04-23T01:25:10.177Z,100996.56
2018-04-23T01:27:36.373Z,100993.71
2018-04-23T01:30:02.383Z,100989.86
2018-04-23T01:32:28.398Z,100991.37
2018-04-23T01:34:54.381Z,101003.52
2018-04-23T01:37:20.528Z,101002.94
2018-04-23T01:39:46.597Z,101004.28
2018-04-23T01:42:13.655Z,101000.25
2018-04-23T01:44:39.660Z,101001.09
2018-04-23T01:47:05.693Z,101005.62
2018-04-23T01:49:31.696Z,101001.09
2018-04-23T01:51:57.693Z,101004.02
2018-04-23T01:54:23.789Z,101012.16
2018-04-23T01:56:49.820Z,101011.66
2018-04-23T01:59:15.865Z,101014.25
2018-04-23T02:01:41.959Z,101014.50
2018-04-23T02:04:07.965Z,101020.63
2018-04-23T02:06:34.068Z,101019.03
2018-04-23T02:09:00.066Z,101022.88
2018-04-23T02:11:26.128Z,101023.83
2018-04-23T02:13:52.185Z,101020.81
2018-04-23T02:16:18.194Z,101021.98
2018-04-23T02:18:44.209Z,101020.65
2018-04-23T02:21:10.285Z,101031.71
2018-04-23T02:23:36.308Z,101035.56
2018-04-23T02:26:02.332Z,101033.89
2018-04-23T02:28:28.328Z,101039.50
2018-04-23T02:30:54.428Z,101039.25
2018-04-23T02:33:20.462Z,101040.33
2018-04-23T02:35:46.541Z,101033.21
2018-04-23T02:38:12.552Z,101039.41
2018-04-23T02:40:38.793Z,101035.72
2018-04-23T02:43:04.817Z,101040.56
2018-04-23T02:45:30.896Z,101040.30
2018-04-23T02:47:56.998Z,101043.31
2018-04-23T02:50:23.038Z,101041.21
2018-04-23T02:52:49.149Z,101040.31
2018-04-23T02:55:15.282Z,101052.37
2018-04-23T02:57:41.789Z,101055.89
2018-04-23T03:00:07.858Z,101053.70
2018-04-23T03:02:33.913Z,101054.61
2018-04-23T03:04:59.958Z,101066.50
2018-04-23T03:07:26.013Z,101066.06
2018-04-23T03:09:52.079Z,101071.99
2018-04-23T03:12:18.148Z,101070.05
2018-04-23T03:14:44.144Z,101070.87
2018-04-23T03:17:10.227Z,101063.94
2018-04-23T03:19:36.212Z,101061.00
2018-04-23T03:22:02.187Z,101061.40
2018-04-23T03:24:28.678Z,101065.81
2018-04-23T03:26:54.781Z,101069.02
2018-04-23T03:29:21.263Z,101071.52
2018-04-23T03:31:47.511Z,101072.84
2018-04-23T03:34:13.531Z,101068.31
2018-04-23T03:36:39.864Z,101079.36
2018-04-23T03:39:05.880Z,101082.28
2018-04-23T03:41:31.882Z,101077.89
2018-04-23T03:43:57.903Z,101084.75
2018-04-23T03:46:23.926Z,101086.48
2018-04-23T03:48:49.968Z,101086.14
2018-04-23T03:51:15.956Z,101097.85
2018-04-23T03:53:41.959Z,101096.52
2018-04-23T03:56:07.996Z,101092.44
2018-04-23T03:58:34.005Z,101098.14
2018-04-23T04:01:00.035Z,101093.09
2018-04-23T04:03:26.026Z,101102.39
2018-04-23T04:05:52.033Z,101096.19
2018-04-23T04:08:18.100Z,101090.19
2018-04-23T04:10:44.088Z,101094.96
2018-04-23T04:13:22.164Z,101099.71
2018-04-23T04:16:00.256Z,101095.85
2018-04-23T04:18:38.445Z,101105.88
2018-04-23T04:21:04.490Z,101111.23
2018-04-23T04:23:30.616Z,101105.23
2018-04-23T04:25:56.622Z,101108.98
2018-04-23T04:28:22.663Z,101107.77
2018-04-23T04:30:48.901Z,101114.31
2018-04-23T04:33:14.998Z,101115.08
2018-04-23T04:35:41.054Z,101124.97
2018-04-23T04:38:07.042Z,101125.16
2018-04-23T04:40:33.176Z,101121.83
2018-04-23T04:42:59.716Z,101126.92
2018-04-23T04:45:25.821Z,101129.06
2018-04-23T04:47:51.847Z,101133.39
2018-04-23T04:50:17.986Z,101133.39
2018-04-23T04:52:44.001Z,101131.33
2018-04-23T04:55:10.072Z,101135.00
2018-04-23T04:57:36.144Z,101141.72
2018-04-23T05:00:02.188Z,101144.82
2018-04-23T05:02:28.350Z,101153.04
2018-04-23T05:04:54.387Z,101157.39
2018-04-23T05:07:20.364Z,101162.86
2018-04-23T05:09:46.886Z,101158.84
2018-04-23T05:12:13.144Z,101162.40
2018-04-23T05:14:39.281Z,101170.28
2018-04-23T05:17:05.483Z,101166.91
2018-04-23T05:19:31.505Z,101170.55
2018-04-23T05:21:57.524Z,101173.64
2018-04-23T05:24:23.624Z,101178.80
2018-04-23T05:26:49.650Z,101174.64
2018-04-23T05:29:15.669Z,101168.43
2018-04-23T05:31:42.265Z,101171.34
2018-04-23T05:34:08.268Z,101180.14
2018-04-23T05:36:34.330Z,101179.59
2018-04-23T05:39:00.378Z,101179.05
2018-04-23T05:41:26.391Z,101178.84
2018-04-23T05:43:52.446Z,101185.68
2018-04-23T05:46:18.449Z,101188.66
2018-04-23T05:48:44.472Z,101202.56
2018-04-23T05:51:10.473Z,101192.66
2018-04-23T05:53:36.522Z,101192.52
2018-04-23T05:56:02.552Z,101185.41
2018-04-23T05:58:28.747Z,101192.28
2018-04-23T06:00:54.836Z,101194.45
2018-04-23T06:03:20.836Z,101197.88
2018-04-23T06:05:46.867Z,101198.67
2018-04-23T06:08:12.984Z,101195.83
2018-04-23T06:10:39.049Z,101193.66
2018-04-23T06:13:05.059Z,101198.86
2018-04-23T06:15:31.372Z,101209.01
2018-04-23T06:17:57.421Z,101212.80
2018-04-23T06:20:23.520Z,101214.03
2018-04-23T06:22:49.698Z,101213.53
2018-04-23T06:25:15.814Z,101221.24
2018-04-23T06:27:41.831Z,101226.91
2018-04-23T06:30:07.929Z,101231.02
2018-04-23T06:32:33.992Z,101243.00
2018-04-23T06:34:59.993Z,101239.47
2018-04-23T06:37:29.987Z,101247.95
2018-04-23T06:39:55.999Z,101249.88
2018-04-23T06:42:22.444Z,101243.78
2018-04-23T06:44:48.795Z,101249.26
2018-04-23T06:47:15.925Z,101246.13
2018-04-23T06:49:42.054Z,101250.83
2018-04-23T06:52:08.076Z,101262.25
2018-04-23T06:54:34.129Z,101259.31
2018-04-23T06:57:00.459Z,101269.56
2018-04-23T06:59:26.545Z,101267.30
2018-04-23T07:01:52.610Z,101267.55
2018-04-23T07:04:18.573Z,101275.27
2018-04-23T07:06:45.605Z,101272.25
2018-04-23T07:09:11.648Z,101276.00
2018-04-23T07:11:37.773Z,101276.33
2018-04-23T07:14:03.810Z,101277.33
2018-04-23T07:16:29.828Z,101281.63
2018-04-23T07:18:55.896Z,101286.67
2018-04-23T07:21:21.973Z,101284.48
2018-04-23T07:23:47.968Z,101296.75
2018-04-23T07:26:13.972Z,101300.89
2018-04-23T07:28:40.100Z,101306.95
2018-04-23T07:31:07.412Z,101310.41
2018-04-23T07:33:33.824Z,101306.66
2018-04-23T07:35:59.893Z,101306.32
2018-04-23T07:38:25.959Z,101317.88
2018-04-23T07:40:52.041Z,101325.86
2018-04-23T07:43:18.261Z,101324.94
2018-04-23T07:45:44.269Z,101327.29
2018-04-23T07:48:11.107Z,101333.56
2018-04-23T07:50:37.234Z,101340.55
2018-04-23T07:53:03.311Z,101341.59
2018-04-23T07:55:29.321Z,101343.98
2018-04-23T07:57:55.466Z,101336.73
2018-04-23T08:00:21.604Z,101346.15
2018-04-23T08:02:48.265Z,101342.97
2018-04-23T08:05:14.330Z,101349.71
2018-04-23T08:07:40.392Z,101352.14
2018-04-23T08:10:06.443Z,101363.33
2018-04-23T08:12:32.465Z,101360.36
2018-04-23T08:14:58.484Z,101371.98
2018-04-23T08:17:24.552Z,101366.09
2018-04-23T08:19:50.601Z,101376.22
2018-04-23T08:23:32.553Z,101375.97
2018-04-23T08:25:58.581Z,101377.77
2018-04-23T08:28:24.574Z,101382.36
2018-04-23T08:30:50.582Z,101381.38
2018-04-23T08:33:16.588Z,101384.06
2018-04-23T08:35:42.558Z,101377.88
2018-04-23T08:38:08.565Z,101385.03
2018-04-23T08:40:34.575Z,101384.29
2018-04-23T08:43:00.613Z,101393.48
2018-04-23T08:45:26.741Z,101391.65
2018-04-23T08:47:52.799Z,101395.34
2018-04-23T08:50:18.853Z,101397.32
2018-04-23T08:52:44.843Z,101402.34
2018-04-23T08:55:11.215Z,101403.84
2018-04-23T08:57:37.349Z,101409.09
2018-04-23T09:00:03.618Z,101409.06
2018-04-23T09:02:29.575Z,101409.33
2018-04-23T09:04:55.620Z,101403.27
2018-04-23T09:07:21.670Z,101411.43
2018-04-23T09:09:47.657Z,101411.66
2018-04-23T09:12:13.660Z,101424.28
2018-04-23T09:14:39.804Z,101434.11
2018-04-23T09:17:05.806Z,101432.44
2018-04-23T09:19:31.806Z,101434.23
2018-04-23T09:21:57.868Z,101427.81
2018-04-23T09:24:23.999Z,101425.05
2018-04-23T09:26:50.021Z,101431.15
2018-04-23T09:29:16.052Z,101429.31
2018-04-23T09:31:42.048Z,101438.18
2018-04-23T09:34:08.097Z,101442.02
2018-04-23T09:36:34.230Z,101438.18
2018-04-23T09:39:00.291Z,101442.18
2018-04-23T09:41:26.249Z,101440.90
2018-04-23T09:43:52.288Z,101442.13
2018-04-23T09:46:18.297Z,101443.81
2018-04-23T09:48:44.310Z,101452.00
2018-04-23T09:51:10.361Z,101450.36
2018-04-23T09:53:36.392Z,101451.85
2018-04-23T09:56:02.405Z,101455.83
2018-04-23T09:58:28.422Z,101457.09
2018-04-23T10:00:54.520Z,101446.09
2018-04-23T10:03:24.476Z,101446.61
2018-04-23T10:05:50.537Z,101451.62
2018-04-23T10:08:16.533Z,101450.30
2018-04-23T10:10:42.541Z,101457.91
2018-04-23T10:13:08.626Z,101454.78
2018-04-23T10:15:34.790Z,101456.80
2018-04-23T10:18:00.860Z,101446.60
2018-04-23T10:20:26.888Z,101449.36
2018-04-23T10:22:52.946Z,101461.84
2018-04-23T10:25:19.098Z,101459.05
2018-04-23T10:27:45.184Z,101457.89
2018-04-23T10:30:11.238Z,101457.44
2018-04-23T10:32:37.332Z,101459.56
2018-04-23T10:35:04.086Z,101464.77
2018-04-23T10:37:30.103Z,101469.53
2018-04-23T10:39:56.107Z,101477.08
2018-04-23T10:42:22.143Z,101468.77
2018-04-23T10:44:48.252Z,101467.27
2018-04-23T10:47:14.306Z,101471.72
2018-04-23T10:49:40.313Z,101473.19
2018-04-23T10:52:06.325Z,101483.02
2018-04-23T10:54:32.397Z,101483.52
2018-04-23T10:56:58.453Z,101488.41
2018-04-23T10:59:24.455Z,101489.29
2018-04-23T11:01:50.808Z,101492.89
2018-04-23T11:04:16.896Z,101484.87
2018-04-23T11:06:43.016Z,101490.52
2018-04-23T11:09:10.095Z,101498.06
2018-04-23T11:11:38.333Z,101482.13
2018-04-23T11:14:04.385Z,101476.85
2018-04-23T11:16:30.392Z,101489.05
2018-04-23T11:18:56.434Z,101488.83
2018-04-23T11:21:22.447Z,101492.14
2018-04-23T11:23:48.519Z,101496.36
2018-04-23T11:26:14.588Z,101479.23
2018-04-23T11:28:40.659Z,101486.14
2018-04-23T11:31:07.021Z,101485.89
2018-04-23T11:33:33.105Z,101493.63
2018-04-23T11:35:59.759Z,101489.45
2018-04-23T11:38:25.786Z,101489.48
2018-04-23T11:40:51.852Z,101490.25
2018-04-23T11:43:17.893Z,101479.48
2018-04-23T11:45:44.090Z,101483.61
2018-04-23T11:48:10.129Z,101478.00
2018-04-23T11:50:36.231Z,101480.14
2018-04-23T11:53:02.237Z,101479.05
2018-04-23T11:55:28.252Z,101486.18
2018-04-23T11:57:54.284Z,101490.92
2018-04-23T12:00:20.410Z,101497.75
2018-04-23T12:02:47.077Z,101485.81
2018-04-23T12:05:13.708Z,101484.23
2018-04-23T12:07:39.821Z,101496.31
2018-04-23T12:10:05.816Z,101490.83
2018-04-23T12:12:31.837Z,101494.19
2018-04-23T12:14:57.888Z,101504.20
2018-04-23T12:17:24.811Z,101506.05
2018-04-23T12:19:50.897Z,101506.91
2018-04-23T12:22:16.953Z,101507.18
2018-04-23T12:24:42.953Z,101511.87
2018-04-23T12:27:09.131Z,101512.31
2018-04-23T12:29:35.266Z,101503.32
2018-04-23T12:32:01.393Z,101509.52
2018-04-23T12:34:27.449Z,101508.52
2018-04-23T12:36:53.520Z,101516.30
2018-04-23T12:39:19.569Z,101517.12
2018-04-23T12:41:45.695Z,101520.60
2018-04-23T12:44:12.168Z,101525.42
2018-04-23T12:46:38.199Z,101527.77
2018-04-23T12:49:10.989Z,101527.48
2018-04-23T12:51:37.069Z,101525.19
2018-04-23T12:54:03.237Z,101522.14
2018-04-23T12:56:29.347Z,101532.08
2018-04-23T12:58:55.420Z,101524.56
2018-04-23T13:01:21.423Z,101536.02
2018-04-23T13:03:47.559Z,101536.92
2018-04-23T13:06:13.597Z,101536.09
2018-04-23T13:08:39.602Z,101535.88
2018-04-23T13:11:05.611Z,101538.70
2018-04-23T13:13:31.717Z,101545.82
2018-04-23T13:15:57.844Z,101548.44
2018-04-23T13:18:23.929Z,101557.54
2018-04-23T13:20:49.969Z,101562.20
2018-04-23T13:23:16.021Z,101559.79
2018-04-23T13:25:42.108Z,101560.83
2018-04-23T13:28:08.135Z,101550.23
2018-04-23T13:30:34.219Z,101552.42
2018-04-23T13:33:00.221Z,101547.12
2018-04-23T13:35:26.236Z,101545.33
2018-04-23T13:37:52.322Z,101543.99
2018-04-23T13:40:18.356Z,101543.67
2018-04-23T13:42:44.385Z,101544.20
2018-04-23T13:45:10.444Z,101552.31
2018-04-23T13:47:36.452Z,101548.94
2018-04-23T13:50:02.466Z,101548.65
2018-04-23T13:52:28.503Z,101548.80
2018-04-23T13:54:54.498Z,101541.83
2018-04-23T13:57:20.488Z,101552.28
2018-04-23T13:59:46.463Z,101535.69
2018-04-23T14:02:12.461Z,101537.78
2018-04-23T14:04:38.445Z,101526.34
2018-04-23T14:07:04.493Z,101536.23
2018-04-23T14:09:30.565Z,101540.07
2018-04-23T14:12:03.547Z,101535.45
2018-04-23T14:14:29.684Z,101538.20
2018-04-23T14:16:55.772Z,101523.22
2018-04-23T14:19:21.790Z,101525.52
2018-04-23T14:21:48.393Z,101527.66
2018-04-23T14:24:14.390Z,101531.44
2018-04-23T14:26:40.397Z,101525.66
2018-04-23T14:29:06.384Z,101529.02
2018-04-23T14:31:32.441Z,101526.47
2018-04-23T14:33:58.458Z,101517.34
2018-04-23T14:36:24.460Z,101516.48
2018-04-23T14:38:50.517Z,101524.86
2018-04-23T14:41:16.574Z,101525.41
2018-04-23T14:43:42.701Z,101522.17
2018-04-23T14:46:08.737Z,101528.42
2018-04-23T14:48:34.855Z,101521.69
2018-04-23T14:51:00.894Z,101515.88
2018-04-23T14:53:26.914Z,101523.48
2018-04-23T14:55:53.036Z,101515.98
2018-04-23T14:58:19.141Z,101519.59
2018-04-23T15:00:45.153Z,101523.31
2018-04-23T15:03:11.145Z,101522.38
2018-04-23T15:05:37.600Z,101521.32
2018-04-23T15:08:03.684Z,101520.43
2018-04-23T15:10:29.750Z,101525.00
2018-04-23T15:12:55.861Z,101518.32
2018-04-23T15:15:21.882Z,101523.62
2018-04-23T15:17:48.005Z,101519.45
2018-04-23T15:20:14.047Z,101514.92
2018-04-23T15:22:40.065Z,101512.41
2018-04-23T15:25:06.080Z,101509.58
2018-04-23T15:27:32.193Z,101509.22
2018-04-23T15:29:58.292Z,101504.75
2018-04-23T15:32:24.276Z,101510.79
2018-04-23T15:34:50.324Z,101513.04
2018-04-23T15:37:16.384Z,101511.63
2018-04-23T15:39:42.419Z,101492.13
2018-04-23T15:42:08.473Z,101504.50
2018-04-23T15:44:34.463Z,101506.17
2018-04-23T15:47:00.485Z,101490.39
2018-04-23T15:49:26.590Z,101496.41
2018-04-23T15:51:52.602Z,101493.86
2018-04-23T15:54:18.645Z,101495.66
2018-04-23T15:56:44.668Z,101496.06
2018-04-23T15:59:10.695Z,101501.03
2018-04-23T16:01:36.713Z,101493.62
2018-04-23T16:04:02.701Z,101490.53
2018-04-23T16:06:28.701Z,101494.41
2018-04-23T16:08:54.822Z,101495.65
2018-04-23T16:11:20.850Z,101498.83
2018-04-23T16:13:46.851Z,101499.81
2018-04-23T16:16:12.918Z,101498.80
2018-04-23T16:18:39.005Z,101491.35
2018-04-23T16:21:04.999Z,101491.41
2018-04-23T16:23:31.081Z,101490.20
2018-04-23T16:25:57.184Z,101480.31
2018-04-23T16:28:23.271Z,101477.53
2018-04-23T16:30:49.316Z,101485.12
2018-04-23T16:33:15.326Z,101486.66
2018-04-23T16:35:41.399Z,101478.04
2018-04-23T16:38:07.540Z,101483.14
2018-04-23T16:40:33.695Z,101476.54
2018-04-23T16:42:59.700Z,101465.85
2018-04-23T16:45:25.824Z,101472.85
2018-04-23T16:47:51.933Z,101466.05
2018-04-23T16:50:24.874Z,101471.42
2018-04-23T16:52:50.994Z,101465.17
2018-04-23T16:55:17.023Z,101470.48
2018-04-23T16:57:43.036Z,101473.28
2018-04-23T17:00:09.218Z,101465.13
2018-04-23T17:02:35.330Z,101467.41
2018-04-23T17:05:01.362Z,101463.00
2018-04-23T17:07:27.378Z,101463.69
2018-04-23T17:09:53.471Z,101467.27
2018-04-23T17:12:19.514Z,101467.41
2018-04-23T17:14:45.555Z,101459.45
2018-04-23T17:17:11.633Z,101456.09
2018-04-23T17:19:37.676Z,101448.63
2018-04-23T17:22:03.725Z,101452.20
2018-04-23T17:24:29.763Z,101455.48
2018-04-23T17:26:55.786Z,101456.66
2018-04-23T17:29:21.962Z,101451.69
2018-04-23T17:31:47.977Z,101457.56
2018-04-23T17:34:14.106Z,101463.27
2018-04-23T17:36:40.160Z,101459.55
2018-04-23T17:39:06.389Z,101452.22
2018-04-23T17:41:32.529Z,101456.91
2018-04-23T17:43:58.636Z,101459.70
2018-04-23T17:46:24.672Z,101458.22
2018-04-23T17:48:50.827Z,101460.05
2018-04-23T17:51:16.879Z,101464.07
2018-04-23T17:53:42.896Z,101468.80
2018-04-23T17:56:09.136Z,101461.23
2018-04-23T17:58:35.209Z,101458.21
2018-04-23T18:01:01.298Z,101467.14
2018-04-23T18:03:27.382Z,101462.74
2018-04-23T18:05:53.501Z,101460.42
2018-04-23T18:08:19.613Z,101463.61
2018-04-23T18:10:45.728Z,101454.72
2018-04-23T18:13:11.747Z,101456.61
2018-04-23T18:15:38.060Z,101456.19
2018-04-23T18:18:04.239Z,101456.98
2018-04-23T18:20:30.314Z,101448.16
2018-04-23T18:22:56.432Z,101443.83
2018-04-23T18:25:22.470Z,101445.77
2018-04-23T18:27:48.615Z,101440.89
2018-04-23T18:30:14.767Z,101440.84
2018-04-23T18:32:40.829Z,101435.62
2018-04-23T18:35:06.959Z,101430.80
2018-04-23T18:37:33.097Z,101430.27
2018-04-23T18:39:59.190Z,101433.31
2018-04-23T18:42:25.254Z,101442.97
2018-04-23T18:44:51.302Z,101444.88
2018-04-23T18:47:17.522Z,101443.77
2018-04-23T18:49:44.271Z,101447.14
2018-04-23T18:52:10.262Z,101444.27
2018-04-23T18:54:36.387Z,101445.79
2018-04-23T18:57:02.493Z,101453.94
2018-04-23T18:59:28.623Z,101451.67
2018-04-23T19:01:54.714Z,101446.54
2018-04-23T19:04:20.788Z,101441.48
2018-04-23T19:06:46.890Z,101439.06
2018-04-23T19:09:12.936Z,101429.27
2018-04-23T19:11:39.087Z,101433.93
2018-04-23T19:14:05.105Z,101431.59
2018-04-23T19:16:31.232Z,101431.09
2018-04-23T19:18:57.913Z,101438.61
2018-04-23T19:21:23.961Z,101447.22
2018-04-23T19:23:50.073Z,101453.79
2018-04-23T19:26:16.223Z,101451.19
2018-04-23T19:28:42.265Z,101457.19
2018-04-23T19:31:08.342Z,101459.52
2018-04-23T19:33:34.356Z,101460.61
2018-04-23T19:36:00.459Z,101459.49
2018-04-23T19:38:26.497Z,101461.55
2018-04-23T19:40:52.550Z,101462.48
2018-04-23T19:43:19.165Z,101461.28
2018-04-23T19:45:45.289Z,101469.18
2018-04-23T19:48:11.426Z,101465.94
2018-04-23T19:50:37.476Z,101463.84
2018-04-23T19:53:03.577Z,101466.69
2018-04-23T19:55:29.717Z,101470.00
2018-04-23T19:57:55.875Z,101463.95
2018-04-23T20:00:21.937Z,101467.05
2018-04-23T20:02:48.018Z,101467.27
2018-04-23T20:05:14.152Z,101475.25
2018-04-23T20:07:40.221Z,101477.41
2018-04-23T20:10:06.302Z,101479.23
2018-04-23T20:12:32.383Z,101473.33
2018-04-23T20:14:58.536Z,101471.37
2018-04-23T20:17:24.510Z,101474.61
2018-04-23T20:19:50.522Z,101474.41
2018-04-23T20:22:16.602Z,101479.70
2018-04-23T20:24:42.623Z,101467.80
2018-04-23T20:27:08.765Z,101473.79
2018-04-23T20:29:34.832Z,101471.19
2018-04-23T20:32:00.962Z,101462.04
2018-04-23T20:34:26.961Z,101452.96
2018-04-23T20:36:52.996Z,101453.11
2018-04-23T20:39:19.107Z,101452.52
2018-04-23T20:41:45.318Z,101453.15
2018-04-23T20:44:11.492Z,101450.89
2018-04-23T20:46:37.520Z,101443.64
2018-04-23T20:49:03.610Z,101452.19
2018-04-23T20:51:29.758Z,101442.69
2018-04-23T20:53:55.782Z,101442.76
2018-04-23T20:56:21.810Z,101443.25
2018-04-23T20:58:47.881Z,101447.47
2018-04-23T21:01:13.983Z,101453.84
2018-04-23T21:03:40.089Z,101448.18
2018-04-23T21:06:06.141Z,101459.97
2018-04-23T21:08:32.156Z,101458.63
2018-04-23T21:10:58.234Z,101467.64
2018-04-23T21:13:24.298Z,101464.48
2018-04-23T21:15:50.329Z,101468.66
2018-04-23T21:18:16.388Z,101469.23
2018-04-23T21:20:42.451Z,101466.48
2018-04-23T21:23:09.115Z,101464.86
2018-04-23T21:25:35.148Z,101459.30
2018-04-23T21:28:01.189Z,101456.95
2018-04-23T21:30:27.315Z,101461.80
2018-04-23T21:32:53.464Z,101450.08
2018-04-23T21:35:19.492Z,101445.33
2018-04-23T21:37:45.647Z,101444.21
2018-04-23T21:40:11.673Z,101450.97
2018-04-23T21:42:37.786Z,101449.98
2018-04-23T21:45:03.827Z,101459.70
2018-04-23T21:47:29.869Z,101453.09
2018-04-23T21:49:55.956Z,101450.48
2018-04-23T21:52:22.040Z,101447.61
2018-04-23T21:54:48.071Z,101454.08
2018-04-23T21:57:14.078Z,101447.13
2018-04-23T21:59:40.796Z,101442.06
2018-04-23T22:02:06.817Z,101439.67
2018-04-23T22:04:32.865Z,101434.05
2018-04-23T22:06:58.950Z,101430.73
2018-04-23T22:09:25.032Z,101417.09
2018-04-23T22:11:51.028Z,101415.12
2018-04-23T22:14:17.097Z,101410.09
2018-04-23T22:16:43.167Z,101409.45
2018-04-23T22:19:09.300Z,101410.23
2018-04-23T22:21:35.423Z,101414.95
2018-04-23T22:24:01.429Z,101413.27
2018-04-23T22:26:27.558Z,101397.64
2018-04-23T22:28:53.911Z,101402.08
2018-04-23T22:31:19.976Z,101413.27
2018-04-23T22:33:46.029Z,101412.34
2018-04-23T22:36:12.063Z,101400.04
2018-04-23T22:38:38.106Z,101395.05
2018-04-23T22:41:05.192Z,101398.64
2018-04-23T22:43:32.159Z,101395.61
2018-04-23T22:45:58.213Z,101401.66
2018-04-23T22:48:24.252Z,101383.88
2018-04-23T22:50:50.281Z,101375.50
2018-04-23T22:53:16.290Z,101356.13
2018-04-23T22:55:42.338Z,101351.28
2018-04-23T22:58:08.397Z,101354.59
2018-04-23T23:00:34.442Z,101347.08
2018-04-23T23:03:00.449Z,101350.91
2018-04-23T23:05:26.477Z,101369.33
2018-04-23T23:07:52.496Z,101379.80
2018-04-23T23:10:18.522Z,101390.70
2018-04-23T23:12:44.560Z,101403.28
2018-04-23T23:15:11.176Z,101405.47
2018-04-23T23:17:37.300Z,101401.11
2018-04-23T23:20:03.372Z,101393.72
2018-04-23T23:22:29.398Z,101397.59
2018-04-23T23:24:55.915Z,101384.23
2018-04-23T23:27:22.016Z,101381.98
2018-04-23T23:29:48.180Z,101397.23
2018-04-23T23:32:14.187Z,101389.65
2018-04-23T23:34:40.176Z,101395.34
2018-04-23T23:37:06.212Z,101381.35
2018-04-23T23:39:32.233Z,101369.83
2018-04-23T23:41:58.245Z,101366.09
2018-04-23T23:44:24.270Z,101361.31
2018-04-23T23:46:50.360Z,101347.96
2018-04-23T23:49:16.410Z,101343.53
2018-04-23T23:51:42.438Z,101350.49
2018-04-23T23:54:08.485Z,101344.38
2018-04-23T23:56:34.496Z,101341.84
2018-04-23T23:59:00.512Z,101340.23
